sensor_id;sensor_type;location;lat;lon;timestamp;P1;durP1;ratioP1;P2;durP2;ratioP2
39848;SDS011;25518;47.878;15.914;2022-12-29T00:01:21;5.00;;;2.23;;
39848;SDS011;25518;47.878;15.914;2022-12-29T00:03:52;3.83;;;2.10;;
39848;SDS011;25518;47.878;15.914;2022-12-29T00:06:23;3.47;;;2.00;;
39848;SDS011;25518;47.878;15.914;2022-12-29T00:08:55;5.45;;;2.42;;
39848;SDS011;25518;47.878;15.914;2022-12-29T00:11:26;3.88;;;2.05;;
39848;SDS011;25518;47.878;15.914;2022-12-29T00:13:57;4.13;;;1.90;;
39848;SDS011;25518;47.878;15.914;2022-12-29T00:16:48;3.50;;;1.98;;
39848;SDS011;25518;47.878;15.914;2022-12-29T00:19:19;5.15;;;2.17;;
39848;SDS011;25518;47.878;15.914;2022-12-29T00:22:12;5.85;;;2.72;;
39848;SDS011;25518;47.878;15.914;2022-12-29T00:25:04;4.03;;;2.00;;
39848;SDS011;25518;47.878;15.914;2022-12-29T00:27:39;7.18;;;2.28;;
39848;SDS011;25518;47.878;15.914;2022-12-29T00:30:30;4.97;;;2.40;;
39848;SDS011;25518;47.878;15.914;2022-12-29T00:33:21;4.03;;;2.30;;
39848;SDS011;25518;47.878;15.914;2022-12-29T00:36:18;3.53;;;1.90;;
39848;SDS011;25518;47.878;15.914;2022-12-29T00:38:55;3.88;;;1.60;;
39848;SDS011;25518;47.878;15.914;2022-12-29T00:41:51;3.00;;;1.40;;
39848;SDS011;25518;47.878;15.914;2022-12-29T00:44:41;3.83;;;1.70;;
39848;SDS011;25518;47.878;15.914;2022-12-29T00:47:12;4.35;;;1.75;;
39848;SDS011;25518;47.878;15.914;2022-12-29T00:49:43;4.20;;;2.17;;
39848;SDS011;25518;47.878;15.914;2022-12-29T00:52:14;5.38;;;2.90;;
39848;SDS011;25518;47.878;15.914;2022-12-29T00:54:45;5.00;;;2.58;;
39848;SDS011;25518;47.878;15.914;2022-12-29T00:57:16;4.53;;;2.00;;
39848;SDS011;25518;47.878;15.914;2022-12-29T00:59:47;7.13;;;2.63;;
39848;SDS011;25518;47.878;15.914;2022-12-29T01:02:18;5.90;;;2.22;;
39848;SDS011;25518;47.878;15.914;2022-12-29T01:04:49;4.47;;;2.10;;
39848;SDS011;25518;47.878;15.914;2022-12-29T01:07:19;4.40;;;2.30;;
39848;SDS011;25518;47.878;15.914;2022-12-29T01:09:50;4.73;;;2.50;;
39848;SDS011;25518;47.878;15.914;2022-12-29T01:12:41;5.25;;;2.28;;
39848;SDS011;25518;47.878;15.914;2022-12-29T01:15:14;5.55;;;2.58;;
39848;SDS011;25518;47.878;15.914;2022-12-29T01:17:45;5.32;;;2.30;;
39848;SDS011;25518;47.878;15.914;2022-12-29T01:20:16;2.80;;;1.50;;
39848;SDS011;25518;47.878;15.914;2022-12-29T01:22:47;4.55;;;2.10;;
39848;SDS011;25518;47.878;15.914;2022-12-29T01:25:18;4.30;;;1.80;;
39848;SDS011;25518;47.878;15.914;2022-12-29T01:27:49;4.22;;;2.05;;
39848;SDS011;25518;47.878;15.914;2022-12-29T01:30:20;3.87;;;2.00;;
39848;SDS011;25518;47.878;15.914;2022-12-29T01:32:51;3.53;;;1.75;;
39848;SDS011;25518;47.878;15.914;2022-12-29T01:35:22;3.80;;;1.77;;
39848;SDS011;25518;47.878;15.914;2022-12-29T01:37:53;3.83;;;1.90;;
39848;SDS011;25518;47.878;15.914;2022-12-29T01:40:24;3.67;;;1.92;;
39848;SDS011;25518;47.878;15.914;2022-12-29T01:42:55;4.95;;;2.30;;
39848;SDS011;25518;47.878;15.914;2022-12-29T01:45:26;4.10;;;2.20;;
39848;SDS011;25518;47.878;15.914;2022-12-29T01:47:58;3.93;;;2.03;;
39848;SDS011;25518;47.878;15.914;2022-12-29T01:50:36;4.20;;;2.00;;
39848;SDS011;25518;47.878;15.914;2022-12-29T01:53:15;3.35;;;1.63;;
39848;SDS011;25518;47.878;15.914;2022-12-29T01:55:52;4.37;;;2.03;;
39848;SDS011;25518;47.878;15.914;2022-12-29T01:58:28;3.78;;;2.00;;
39848;SDS011;25518;47.878;15.914;2022-12-29T02:01:02;3.97;;;2.07;;
39848;SDS011;25518;47.878;15.914;2022-12-29T02:03:34;4.88;;;2.20;;
39848;SDS011;25518;47.878;15.914;2022-12-29T02:06:09;4.18;;;2.38;;
39848;SDS011;25518;47.878;15.914;2022-12-29T02:08:46;4.38;;;2.17;;
39848;SDS011;25518;47.878;15.914;2022-12-29T02:11:18;6.13;;;2.38;;
39848;SDS011;25518;47.878;15.914;2022-12-29T02:13:50;4.53;;;2.17;;
39848;SDS011;25518;47.878;15.914;2022-12-29T02:30:40;2.63;;;1.50;;
39848;SDS011;25518;47.878;15.914;2022-12-29T02:35:54;4.47;;;2.00;;
39848;SDS011;25518;47.878;15.914;2022-12-29T02:41:21;6.18;;;2.80;;
39848;SDS011;25518;47.878;15.914;2022-12-29T02:44:01;6.00;;;2.80;;
39848;SDS011;25518;47.878;15.914;2022-12-29T02:46:37;4.25;;;2.10;;
39848;SDS011;25518;47.878;15.914;2022-12-29T02:54:33;4.17;;;2.13;;
39848;SDS011;25518;47.878;15.914;2022-12-29T02:57:26;3.92;;;1.95;;
39848;SDS011;25518;47.878;15.914;2022-12-29T03:19:19;2.88;;;1.67;;
39848;SDS011;25518;47.878;15.914;2022-12-29T03:21:55;4.13;;;2.17;;
39848;SDS011;25518;47.878;15.914;2022-12-29T03:24:59;3.47;;;1.80;;
39848;SDS011;25518;47.878;15.914;2022-12-29T03:27:33;3.60;;;1.80;;
39848;SDS011;25518;47.878;15.914;2022-12-29T03:30:09;4.50;;;2.20;;
39848;SDS011;25518;47.878;15.914;2022-12-29T03:32:43;3.60;;;1.60;;
39848;SDS011;25518;47.878;15.914;2022-12-29T03:35:19;3.17;;;1.30;;
39848;SDS011;25518;47.878;15.914;2022-12-29T03:37:55;3.15;;;1.77;;
39848;SDS011;25518;47.878;15.914;2022-12-29T03:40:32;4.00;;;1.60;;
39848;SDS011;25518;47.878;15.914;2022-12-29T03:43:04;4.20;;;1.50;;
39848;SDS011;25518;47.878;15.914;2022-12-29T03:45:36;3.35;;;1.80;;
39848;SDS011;25518;47.878;15.914;2022-12-29T03:48:07;4.00;;;2.13;;
39848;SDS011;25518;47.878;15.914;2022-12-29T03:50:38;4.25;;;1.70;;
39848;SDS011;25518;47.878;15.914;2022-12-29T03:53:09;3.28;;;1.55;;
39848;SDS011;25518;47.878;15.914;2022-12-29T03:55:40;4.00;;;1.90;;
39848;SDS011;25518;47.878;15.914;2022-12-29T03:58:11;3.08;;;1.50;;
39848;SDS011;25518;47.878;15.914;2022-12-29T04:00:42;3.50;;;1.60;;
39848;SDS011;25518;47.878;15.914;2022-12-29T04:03:12;3.35;;;1.83;;
39848;SDS011;25518;47.878;15.914;2022-12-29T04:05:43;3.90;;;1.63;;
39848;SDS011;25518;47.878;15.914;2022-12-29T04:08:14;3.53;;;1.83;;
39848;SDS011;25518;47.878;15.914;2022-12-29T04:10:45;2.67;;;1.40;;
39848;SDS011;25518;47.878;15.914;2022-12-29T04:13:19;5.38;;;1.90;;
39848;SDS011;25518;47.878;15.914;2022-12-29T04:15:50;4.72;;;1.98;;
39848;SDS011;25518;47.878;15.914;2022-12-29T04:18:21;3.17;;;1.70;;
39848;SDS011;25518;47.878;15.914;2022-12-29T04:20:52;2.38;;;1.33;;
39848;SDS011;25518;47.878;15.914;2022-12-29T04:23:32;3.20;;;1.73;;
39848;SDS011;25518;47.878;15.914;2022-12-29T04:26:05;2.42;;;1.30;;
39848;SDS011;25518;47.878;15.914;2022-12-29T04:28:39;3.47;;;1.48;;
39848;SDS011;25518;47.878;15.914;2022-12-29T04:31:09;3.08;;;1.50;;
39848;SDS011;25518;47.878;15.914;2022-12-29T04:33:40;2.88;;;1.45;;
39848;SDS011;25518;47.878;15.914;2022-12-29T04:36:11;3.77;;;1.53;;
39848;SDS011;25518;47.878;15.914;2022-12-29T04:38:42;2.85;;;1.38;;
39848;SDS011;25518;47.878;15.914;2022-12-29T04:41:13;3.15;;;1.38;;
39848;SDS011;25518;47.878;15.914;2022-12-29T04:43:44;3.70;;;1.48;;
39848;SDS011;25518;47.878;15.914;2022-12-29T04:46:15;2.92;;;1.30;;
39848;SDS011;25518;47.878;15.914;2022-12-29T04:48:47;2.85;;;1.60;;
39848;SDS011;25518;47.878;15.914;2022-12-29T04:51:18;2.83;;;1.40;;
39848;SDS011;25518;47.878;15.914;2022-12-29T04:53:49;3.30;;;1.73;;
39848;SDS011;25518;47.878;15.914;2022-12-29T04:56:19;3.17;;;1.30;;
39848;SDS011;25518;47.878;15.914;2022-12-29T04:58:50;3.05;;;1.60;;
39848;SDS011;25518;47.878;15.914;2022-12-29T05:01:21;2.92;;;1.50;;
39848;SDS011;25518;47.878;15.914;2022-12-29T05:03:52;3.55;;;1.75;;
39848;SDS011;25518;47.878;15.914;2022-12-29T05:06:23;3.13;;;1.70;;
39848;SDS011;25518;47.878;15.914;2022-12-29T05:08:54;3.80;;;1.90;;
39848;SDS011;25518;47.878;15.914;2022-12-29T05:11:25;3.75;;;1.60;;
39848;SDS011;25518;47.878;15.914;2022-12-29T05:13:56;4.72;;;2.40;;
39848;SDS011;25518;47.878;15.914;2022-12-29T05:16:27;4.00;;;2.20;;
39848;SDS011;25518;47.878;15.914;2022-12-29T05:18:58;3.78;;;1.90;;
39848;SDS011;25518;47.878;15.914;2022-12-29T05:21:29;4.03;;;1.88;;
39848;SDS011;25518;47.878;15.914;2022-12-29T05:24:00;3.80;;;2.00;;
39848;SDS011;25518;47.878;15.914;2022-12-29T05:26:30;5.37;;;2.30;;
39848;SDS011;25518;47.878;15.914;2022-12-29T05:29:02;6.22;;;2.90;;
39848;SDS011;25518;47.878;15.914;2022-12-29T05:31:33;4.38;;;2.40;;
39848;SDS011;25518;47.878;15.914;2022-12-29T05:34:05;4.07;;;2.05;;
39848;SDS011;25518;47.878;15.914;2022-12-29T05:36:36;4.30;;;1.90;;
39848;SDS011;25518;47.878;15.914;2022-12-29T05:39:07;3.97;;;1.80;;
39848;SDS011;25518;47.878;15.914;2022-12-29T05:41:38;4.45;;;1.90;;
39848;SDS011;25518;47.878;15.914;2022-12-29T05:44:10;3.60;;;1.63;;
39848;SDS011;25518;47.878;15.914;2022-12-29T05:46:42;3.95;;;1.63;;
39848;SDS011;25518;47.878;15.914;2022-12-29T05:49:13;4.20;;;2.70;;
39848;SDS011;25518;47.878;15.914;2022-12-29T05:51:44;5.07;;;2.80;;
39848;SDS011;25518;47.878;15.914;2022-12-29T05:54:14;4.70;;;2.60;;
39848;SDS011;25518;47.878;15.914;2022-12-29T05:56:45;5.07;;;2.67;;
39848;SDS011;25518;47.878;15.914;2022-12-29T05:59:16;4.72;;;2.60;;
39848;SDS011;25518;47.878;15.914;2022-12-29T06:01:47;5.20;;;2.47;;
39848;SDS011;25518;47.878;15.914;2022-12-29T06:04:19;5.88;;;2.80;;
39848;SDS011;25518;47.878;15.914;2022-12-29T06:06:50;5.90;;;3.00;;
39848;SDS011;25518;47.878;15.914;2022-12-29T06:09:21;10.43;;;4.80;;
39848;SDS011;25518;47.878;15.914;2022-12-29T06:11:52;8.32;;;4.20;;
39848;SDS011;25518;47.878;15.914;2022-12-29T06:14:23;6.50;;;3.15;;
39848;SDS011;25518;47.878;15.914;2022-12-29T06:16:53;4.20;;;2.30;;
39848;SDS011;25518;47.878;15.914;2022-12-29T06:19:24;5.50;;;3.27;;
39848;SDS011;25518;47.878;15.914;2022-12-29T06:21:55;5.35;;;3.00;;
39848;SDS011;25518;47.878;15.914;2022-12-29T06:24:26;4.80;;;3.22;;
39848;SDS011;25518;47.878;15.914;2022-12-29T06:26:57;4.50;;;2.70;;
39848;SDS011;25518;47.878;15.914;2022-12-29T06:29:28;4.80;;;2.60;;
39848;SDS011;25518;47.878;15.914;2022-12-29T06:31:59;4.83;;;2.60;;
39848;SDS011;25518;47.878;15.914;2022-12-29T06:34:30;4.65;;;2.25;;
39848;SDS011;25518;47.878;15.914;2022-12-29T06:37:01;9.63;;;4.80;;
39848;SDS011;25518;47.878;15.914;2022-12-29T06:39:32;4.95;;;2.55;;
39848;SDS011;25518;47.878;15.914;2022-12-29T06:42:03;8.25;;;4.03;;
39848;SDS011;25518;47.878;15.914;2022-12-29T06:44:34;8.13;;;4.15;;
39848;SDS011;25518;47.878;15.914;2022-12-29T06:47:05;9.27;;;4.77;;
39848;SDS011;25518;47.878;15.914;2022-12-29T06:49:36;8.32;;;4.07;;
39848;SDS011;25518;47.878;15.914;2022-12-29T06:52:07;19.90;;;11.20;;
39848;SDS011;25518;47.878;15.914;2022-12-29T06:54:38;14.60;;;8.48;;
39848;SDS011;25518;47.878;15.914;2022-12-29T06:57:09;12.33;;;5.87;;
39848;SDS011;25518;47.878;15.914;2022-12-29T06:59:40;10.10;;;5.07;;
39848;SDS011;25518;47.878;15.914;2022-12-29T07:02:11;16.25;;;7.68;;
39848;SDS011;25518;47.878;15.914;2022-12-29T07:04:44;13.93;;;6.63;;
39848;SDS011;25518;47.878;15.914;2022-12-29T07:07:15;13.18;;;6.63;;
39848;SDS011;25518;47.878;15.914;2022-12-29T07:09:46;12.13;;;5.73;;
39848;SDS011;25518;47.878;15.914;2022-12-29T07:12:17;11.47;;;5.60;;
39848;SDS011;25518;47.878;15.914;2022-12-29T07:14:48;11.13;;;5.30;;
39848;SDS011;25518;47.878;15.914;2022-12-29T07:17:19;12.88;;;4.85;;
39848;SDS011;25518;47.878;15.914;2022-12-29T07:19:50;10.88;;;4.85;;
39848;SDS011;25518;47.878;15.914;2022-12-29T07:22:21;8.48;;;4.18;;
39848;SDS011;25518;47.878;15.914;2022-12-29T07:24:52;8.73;;;4.80;;
39848;SDS011;25518;47.878;15.914;2022-12-29T07:27:23;10.00;;;5.05;;
39848;SDS011;25518;47.878;15.914;2022-12-29T07:29:54;10.93;;;5.68;;
39848;SDS011;25518;47.878;15.914;2022-12-29T07:32:25;14.23;;;6.53;;
39848;SDS011;25518;47.878;15.914;2022-12-29T07:34:56;12.57;;;6.65;;
39848;SDS011;25518;47.878;15.914;2022-12-29T07:37:26;12.38;;;5.82;;
39848;SDS011;25518;47.878;15.914;2022-12-29T07:39:57;10.55;;;5.68;;
39848;SDS011;25518;47.878;15.914;2022-12-29T07:42:28;11.73;;;5.57;;
39848;SDS011;25518;47.878;15.914;2022-12-29T07:45:00;9.93;;;4.72;;
39848;SDS011;25518;47.878;15.914;2022-12-29T07:47:31;7.80;;;4.20;;
39848;SDS011;25518;47.878;15.914;2022-12-29T07:50:02;8.23;;;4.40;;
39848;SDS011;25518;47.878;15.914;2022-12-29T07:52:34;8.27;;;4.67;;
39848;SDS011;25518;47.878;15.914;2022-12-29T07:55:05;6.65;;;3.97;;
39848;SDS011;25518;47.878;15.914;2022-12-29T07:57:36;7.68;;;3.92;;
39848;SDS011;25518;47.878;15.914;2022-12-29T08:00:07;8.20;;;4.13;;
39848;SDS011;25518;47.878;15.914;2022-12-29T08:02:39;7.22;;;3.92;;
39848;SDS011;25518;47.878;15.914;2022-12-29T08:05:10;5.80;;;2.83;;
39848;SDS011;25518;47.878;15.914;2022-12-29T08:07:43;5.38;;;2.70;;
39848;SDS011;25518;47.878;15.914;2022-12-29T08:10:15;5.93;;;3.10;;
39848;SDS011;25518;47.878;15.914;2022-12-29T08:12:46;5.25;;;2.80;;
39848;SDS011;25518;47.878;15.914;2022-12-29T08:15:17;5.27;;;2.50;;
39848;SDS011;25518;47.878;15.914;2022-12-29T08:17:48;5.45;;;2.65;;
39848;SDS011;25518;47.878;15.914;2022-12-29T08:20:19;4.63;;;2.72;;
39848;SDS011;25518;47.878;15.914;2022-12-29T08:22:50;4.53;;;2.40;;
39848;SDS011;25518;47.878;15.914;2022-12-29T08:25:21;5.70;;;2.40;;
39848;SDS011;25518;47.878;15.914;2022-12-29T08:27:52;4.50;;;2.40;;
39848;SDS011;25518;47.878;15.914;2022-12-29T08:30:23;5.40;;;2.60;;
39848;SDS011;25518;47.878;15.914;2022-12-29T08:32:54;3.80;;;2.28;;
39848;SDS011;25518;47.878;15.914;2022-12-29T08:35:25;4.47;;;2.10;;
39848;SDS011;25518;47.878;15.914;2022-12-29T08:37:56;4.90;;;2.33;;
39848;SDS011;25518;47.878;15.914;2022-12-29T08:40:26;4.47;;;2.30;;
39848;SDS011;25518;47.878;15.914;2022-12-29T08:42:57;5.03;;;2.17;;
39848;SDS011;25518;47.878;15.914;2022-12-29T08:45:28;4.28;;;2.40;;
39848;SDS011;25518;47.878;15.914;2022-12-29T08:47:59;4.55;;;2.15;;
39848;SDS011;25518;47.878;15.914;2022-12-29T08:50:30;3.75;;;1.90;;
39848;SDS011;25518;47.878;15.914;2022-12-29T08:53:01;6.25;;;3.10;;
39848;SDS011;25518;47.878;15.914;2022-12-29T08:55:32;5.47;;;2.78;;
39848;SDS011;25518;47.878;15.914;2022-12-29T08:58:03;6.25;;;2.95;;
39848;SDS011;25518;47.878;15.914;2022-12-29T09:00:34;12.48;;;6.20;;
39848;SDS011;25518;47.878;15.914;2022-12-29T09:03:05;6.88;;;3.42;;
39848;SDS011;25518;47.878;15.914;2022-12-29T09:05:36;6.45;;;2.65;;
39848;SDS011;25518;47.878;15.914;2022-12-29T09:08:07;18.83;;;9.70;;
39848;SDS011;25518;47.878;15.914;2022-12-29T09:10:39;24.83;;;13.32;;
39848;SDS011;25518;47.878;15.914;2022-12-29T09:13:10;21.13;;;11.10;;
39848;SDS011;25518;47.878;15.914;2022-12-29T09:15:42;18.10;;;9.15;;
39848;SDS011;25518;47.878;15.914;2022-12-29T09:18:13;17.40;;;9.20;;
39848;SDS011;25518;47.878;15.914;2022-12-29T09:20:44;14.77;;;7.40;;
39848;SDS011;25518;47.878;15.914;2022-12-29T09:23:14;8.70;;;4.47;;
39848;SDS011;25518;47.878;15.914;2022-12-29T09:25:47;7.27;;;2.93;;
39848;SDS011;25518;47.878;15.914;2022-12-29T09:28:18;4.20;;;1.90;;
39848;SDS011;25518;47.878;15.914;2022-12-29T09:30:49;4.43;;;1.60;;
39848;SDS011;25518;47.878;15.914;2022-12-29T09:33:20;3.00;;;1.33;;
39848;SDS011;25518;47.878;15.914;2022-12-29T10:21:28;1.70;;;0.83;;
39848;SDS011;25518;47.878;15.914;2022-12-29T10:24:06;2.17;;;1.33;;
39848;SDS011;25518;47.878;15.914;2022-12-29T10:26:41;3.85;;;1.10;;
39848;SDS011;25518;47.878;15.914;2022-12-29T10:31:55;3.05;;;1.30;;
39848;SDS011;25518;47.878;15.914;2022-12-29T10:34:31;2.60;;;1.10;;
39848;SDS011;25518;47.878;15.914;2022-12-29T10:39:59;2.67;;;1.38;;
39848;SDS011;25518;47.878;15.914;2022-12-29T10:42:45;1.90;;;1.15;;
39848;SDS011;25518;47.878;15.914;2022-12-29T10:45:21;3.35;;;1.20;;
39848;SDS011;25518;47.878;15.914;2022-12-29T10:50:30;2.13;;;1.05;;
39848;SDS011;25518;47.878;15.914;2022-12-29T10:53:04;2.15;;;1.00;;
39848;SDS011;25518;47.878;15.914;2022-12-29T10:55:35;1.45;;;0.73;;
39848;SDS011;25518;47.878;15.914;2022-12-29T10:58:10;3.65;;;1.00;;
39848;SDS011;25518;47.878;15.914;2022-12-29T11:00:43;3.38;;;1.13;;
39848;SDS011;25518;47.878;15.914;2022-12-29T11:06:19;2.30;;;0.93;;
39848;SDS011;25518;47.878;15.914;2022-12-29T11:09:08;2.20;;;0.80;;
39848;SDS011;25518;47.878;15.914;2022-12-29T11:11:47;3.53;;;0.55;;
39848;SDS011;25518;47.878;15.914;2022-12-29T11:14:21;3.13;;;1.10;;
39848;SDS011;25518;47.878;15.914;2022-12-29T11:16:59;2.88;;;1.00;;
39848;SDS011;25518;47.878;15.914;2022-12-29T11:19:32;2.53;;;1.30;;
39848;SDS011;25518;47.878;15.914;2022-12-29T11:22:11;4.28;;;1.30;;
39848;SDS011;25518;47.878;15.914;2022-12-29T11:24:45;3.03;;;1.20;;
39848;SDS011;25518;47.878;15.914;2022-12-29T11:27:18;2.55;;;1.00;;
39848;SDS011;25518;47.878;15.914;2022-12-29T11:29:54;2.40;;;1.05;;
39848;SDS011;25518;47.878;15.914;2022-12-29T11:32:27;3.15;;;1.70;;
39848;SDS011;25518;47.878;15.914;2022-12-29T11:35:00;3.05;;;1.00;;
39848;SDS011;25518;47.878;15.914;2022-12-29T11:37:33;1.90;;;0.80;;
39848;SDS011;25518;47.878;15.914;2022-12-29T11:40:24;1.90;;;0.88;;
39848;SDS011;25518;47.878;15.914;2022-12-29T11:42:57;4.63;;;1.13;;
39848;SDS011;25518;47.878;15.914;2022-12-29T11:45:33;3.05;;;1.08;;
39848;SDS011;25518;47.878;15.914;2022-12-29T11:48:06;3.03;;;1.08;;
39848;SDS011;25518;47.878;15.914;2022-12-29T11:50:40;4.22;;;1.00;;
39848;SDS011;25518;47.878;15.914;2022-12-29T11:56:03;2.00;;;0.88;;
39848;SDS011;25518;47.878;15.914;2022-12-29T11:58:38;3.55;;;1.00;;
39848;SDS011;25518;47.878;15.914;2022-12-29T12:01:12;2.38;;;0.98;;
39848;SDS011;25518;47.878;15.914;2022-12-29T12:04:06;1.92;;;1.00;;
39848;SDS011;25518;47.878;15.914;2022-12-29T12:06:45;3.35;;;1.25;;
39848;SDS011;25518;47.878;15.914;2022-12-29T12:09:31;3.85;;;1.40;;
39848;SDS011;25518;47.878;15.914;2022-12-29T12:12:07;2.90;;;0.98;;
39848;SDS011;25518;47.878;15.914;2022-12-29T12:14:54;4.63;;;2.08;;
39848;SDS011;25518;47.878;15.914;2022-12-29T12:17:30;1.85;;;0.88;;
39848;SDS011;25518;47.878;15.914;2022-12-29T12:20:14;5.18;;;1.45;;
39848;SDS011;25518;47.878;15.914;2022-12-29T12:23:10;3.03;;;1.13;;
39848;SDS011;25518;47.878;15.914;2022-12-29T12:26:13;3.83;;;1.00;;
39848;SDS011;25518;47.878;15.914;2022-12-29T12:29:12;2.80;;;1.10;;
39848;SDS011;25518;47.878;15.914;2022-12-29T12:31:41;4.03;;;1.38;;
39848;SDS011;25518;47.878;15.914;2022-12-29T12:34:19;2.38;;;0.90;;
39848;SDS011;25518;47.878;15.914;2022-12-29T12:39:40;2.58;;;1.08;;
39848;SDS011;25518;47.878;15.914;2022-12-29T12:50:53;2.47;;;0.90;;
39848;SDS011;25518;47.878;15.914;2022-12-29T12:53:29;2.88;;;1.23;;
39848;SDS011;25518;47.878;15.914;2022-12-29T12:59:16;5.28;;;1.95;;
39848;SDS011;25518;47.878;15.914;2022-12-29T13:05:06;2.83;;;1.30;;
39848;SDS011;25518;47.878;15.914;2022-12-29T13:07:50;3.40;;;1.15;;
39848;SDS011;25518;47.878;15.914;2022-12-29T13:10:35;4.03;;;1.42;;
39848;SDS011;25518;47.878;15.914;2022-12-29T13:19:08;2.63;;;1.38;;
39848;SDS011;25518;47.878;15.914;2022-12-29T13:24:23;2.38;;;1.40;;
39848;SDS011;25518;47.878;15.914;2022-12-29T13:27:48;3.35;;;1.42;;
39848;SDS011;25518;47.878;15.914;2022-12-29T13:30:04;3.47;;;1.40;;
39848;SDS011;25518;47.878;15.914;2022-12-29T13:38:16;3.22;;;1.20;;
39848;SDS011;25518;47.878;15.914;2022-12-29T13:40:56;5.50;;;2.33;;
39848;SDS011;25518;47.878;15.914;2022-12-29T13:43:34;4.27;;;1.90;;
39848;SDS011;25518;47.878;15.914;2022-12-29T13:46:12;4.57;;;1.67;;
39848;SDS011;25518;47.878;15.914;2022-12-29T13:49:06;3.65;;;1.55;;
39848;SDS011;25518;47.878;15.914;2022-12-29T13:51:43;3.22;;;1.50;;
39848;SDS011;25518;47.878;15.914;2022-12-29T13:59:59;7.35;;;2.72;;
39848;SDS011;25518;47.878;15.914;2022-12-29T14:05:39;2.90;;;1.30;;
39848;SDS011;25518;47.878;15.914;2022-12-29T14:08:30;5.57;;;1.40;;
39848;SDS011;25518;47.878;15.914;2022-12-29T14:11:08;5.13;;;2.40;;
39848;SDS011;25518;47.878;15.914;2022-12-29T14:13:43;3.90;;;2.20;;
39848;SDS011;25518;47.878;15.914;2022-12-29T14:16:32;3.97;;;1.92;;
39848;SDS011;25518;47.878;15.914;2022-12-29T14:19:05;4.80;;;1.85;;
39848;SDS011;25518;47.878;15.914;2022-12-29T14:21:51;5.38;;;2.22;;
39848;SDS011;25518;47.878;15.914;2022-12-29T14:24:26;4.00;;;2.00;;
39848;SDS011;25518;47.878;15.914;2022-12-29T14:29:44;6.47;;;2.58;;
39848;SDS011;25518;47.878;15.914;2022-12-29T14:34:55;4.80;;;2.40;;
39848;SDS011;25518;47.878;15.914;2022-12-29T14:40:03;3.28;;;1.55;;
39848;SDS011;25518;47.878;15.914;2022-12-29T14:42:44;4.18;;;1.50;;
39848;SDS011;25518;47.878;15.914;2022-12-29T14:47:49;3.35;;;1.63;;
39848;SDS011;25518;47.878;15.914;2022-12-29T14:50:24;6.65;;;1.75;;
39848;SDS011;25518;47.878;15.914;2022-12-29T14:53:05;3.47;;;2.13;;
39848;SDS011;25518;47.878;15.914;2022-12-29T14:55:56;10.75;;;4.85;;
39848;SDS011;25518;47.878;15.914;2022-12-29T14:58:31;16.50;;;7.70;;
39848;SDS011;25518;47.878;15.914;2022-12-29T15:01:17;13.60;;;6.75;;
39848;SDS011;25518;47.878;15.914;2022-12-29T15:03:54;15.18;;;7.38;;
39848;SDS011;25518;47.878;15.914;2022-12-29T15:06:31;18.52;;;8.00;;
39848;SDS011;25518;47.878;15.914;2022-12-29T15:12:01;16.67;;;7.70;;
39848;SDS011;25518;47.878;15.914;2022-12-29T15:14:49;10.52;;;5.97;;
39848;SDS011;25518;47.878;15.914;2022-12-29T15:17:24;11.00;;;5.03;;
39848;SDS011;25518;47.878;15.914;2022-12-29T15:19:56;11.50;;;6.00;;
39848;SDS011;25518;47.878;15.914;2022-12-29T15:22:29;14.17;;;6.67;;
39848;SDS011;25518;47.878;15.914;2022-12-29T15:25:01;13.35;;;6.28;;
39848;SDS011;25518;47.878;15.914;2022-12-29T15:27:33;17.48;;;7.88;;
39848;SDS011;25518;47.878;15.914;2022-12-29T15:30:12;15.55;;;6.20;;
39848;SDS011;25518;47.878;15.914;2022-12-29T15:32:44;19.08;;;8.63;;
39848;SDS011;25518;47.878;15.914;2022-12-29T15:38:13;13.80;;;6.28;;
39848;SDS011;25518;47.878;15.914;2022-12-29T15:40:46;10.87;;;5.33;;
39848;SDS011;25518;47.878;15.914;2022-12-29T15:46:12;24.23;;;10.23;;
39848;SDS011;25518;47.878;15.914;2022-12-29T15:48:44;13.32;;;5.63;;
39848;SDS011;25518;47.878;15.914;2022-12-29T15:53:48;6.93;;;3.50;;
39848;SDS011;25518;47.878;15.914;2022-12-29T15:56:21;7.47;;;3.13;;
39848;SDS011;25518;47.878;15.914;2022-12-29T15:58:53;6.33;;;2.77;;
39848;SDS011;25518;47.878;15.914;2022-12-29T16:04:00;4.90;;;2.35;;
39848;SDS011;25518;47.878;15.914;2022-12-29T16:06:37;3.80;;;1.50;;
39848;SDS011;25518;47.878;15.914;2022-12-29T16:09:16;3.20;;;1.13;;
39848;SDS011;25518;47.878;15.914;2022-12-29T16:11:51;3.85;;;1.25;;
39848;SDS011;25518;47.878;15.914;2022-12-29T16:14:30;3.72;;;1.70;;
39848;SDS011;25518;47.878;15.914;2022-12-29T16:17:09;4.40;;;2.05;;
39848;SDS011;25518;47.878;15.914;2022-12-29T16:19:43;7.45;;;2.90;;
39848;SDS011;25518;47.878;15.914;2022-12-29T16:22:27;16.75;;;7.57;;
39848;SDS011;25518;47.878;15.914;2022-12-29T16:25:01;14.48;;;8.40;;
39848;SDS011;25518;47.878;15.914;2022-12-29T16:27:37;9.33;;;4.47;;
39848;SDS011;25518;47.878;15.914;2022-12-29T16:30:27;5.05;;;2.35;;
39848;SDS011;25518;47.878;15.914;2022-12-29T16:33:01;4.35;;;2.42;;
39848;SDS011;25518;47.878;15.914;2022-12-29T16:35:39;4.80;;;1.80;;
39848;SDS011;25518;47.878;15.914;2022-12-29T16:38:16;4.57;;;1.80;;
39848;SDS011;25518;47.878;15.914;2022-12-29T16:40:50;3.92;;;1.75;;
39848;SDS011;25518;47.878;15.914;2022-12-29T16:43:25;4.22;;;1.98;;
39848;SDS011;25518;47.878;15.914;2022-12-29T16:48:30;5.80;;;2.13;;
39848;SDS011;25518;47.878;15.914;2022-12-29T16:51:16;4.15;;;1.90;;
39848;SDS011;25518;47.878;15.914;2022-12-29T16:53:52;6.38;;;2.20;;
39848;SDS011;25518;47.878;15.914;2022-12-29T16:56:26;11.93;;;6.65;;
39848;SDS011;25518;47.878;15.914;2022-12-29T16:59:02;16.50;;;7.63;;
39848;SDS011;25518;47.878;15.914;2022-12-29T17:01:35;10.73;;;5.95;;
39848;SDS011;25518;47.878;15.914;2022-12-29T17:04:08;6.55;;;3.20;;
39848;SDS011;25518;47.878;15.914;2022-12-29T17:06:42;6.45;;;2.70;;
39848;SDS011;25518;47.878;15.914;2022-12-29T17:09:17;6.07;;;2.63;;
39848;SDS011;25518;47.878;15.914;2022-12-29T17:11:55;5.13;;;1.90;;
39848;SDS011;25518;47.878;15.914;2022-12-29T17:17:00;4.47;;;2.05;;
39848;SDS011;25518;47.878;15.914;2022-12-29T17:19:33;6.28;;;2.80;;
39848;SDS011;25518;47.878;15.914;2022-12-29T17:22:15;7.45;;;3.00;;
39848;SDS011;25518;47.878;15.914;2022-12-29T17:24:51;22.38;;;10.25;;
39848;SDS011;25518;47.878;15.914;2022-12-29T17:30:11;18.35;;;10.10;;
39848;SDS011;25518;47.878;15.914;2022-12-29T17:32:48;20.60;;;10.67;;
39848;SDS011;25518;47.878;15.914;2022-12-29T17:35:23;21.50;;;11.23;;
39848;SDS011;25518;47.878;15.914;2022-12-29T17:37:55;15.98;;;9.00;;
39848;SDS011;25518;47.878;15.914;2022-12-29T17:40:27;17.20;;;9.00;;
39848;SDS011;25518;47.878;15.914;2022-12-29T17:43:01;16.55;;;9.55;;
39848;SDS011;25518;47.878;15.914;2022-12-29T17:45:32;18.13;;;9.57;;
39848;SDS011;25518;47.878;15.914;2022-12-29T17:48:04;16.00;;;9.45;;
39848;SDS011;25518;47.878;15.914;2022-12-29T17:50:43;21.15;;;10.95;;
39848;SDS011;25518;47.878;15.914;2022-12-29T17:53:23;19.20;;;9.82;;
39848;SDS011;25518;47.878;15.914;2022-12-29T17:55:57;16.15;;;8.40;;
39848;SDS011;25518;47.878;15.914;2022-12-29T17:58:28;22.25;;;11.82;;
39848;SDS011;25518;47.878;15.914;2022-12-29T18:01:01;17.45;;;9.88;;
39848;SDS011;25518;47.878;15.914;2022-12-29T18:03:35;21.37;;;11.67;;
39848;SDS011;25518;47.878;15.914;2022-12-29T18:06:08;17.98;;;10.80;;
39848;SDS011;25518;47.878;15.914;2022-12-29T18:08:41;25.97;;;13.10;;
39848;SDS011;25518;47.878;15.914;2022-12-29T18:11:22;19.77;;;9.70;;